sensor_id;sensor_type;location;lat;lon;timestamp;pressure;altitude;pressure_sealevel;temperature;humidity
6530;BME280;3298;42.688;23.366;2022-11-06T00:00:34;51866.50;;;-145.06;68.79
6530;BME280;3298;42.688;23.366;2022-11-06T00:03:03;51897.19;;;-145.06;69.23
6530;BME280;3298;42.688;23.366;2022-11-06T00:05:30;51880.81;;;-145.06;69.04
6530;BME280;3298;42.688;23.366;2022-11-06T00:08:15;51864.47;;;-145.06;69.68
6530;BME280;3298;42.688;23.366;2022-11-06T00:10:51;51919.72;;;-145.06;69.41
6530;BME280;3298;42.688;23.366;2022-11-06T00:13:18;51897.19;;;-145.06;69.75
6530;BME280;3298;42.688;23.366;2022-11-06T00:15:45;51915.63;;;-145.06;69.44
6530;BME280;3298;42.688;23.366;2022-11-06T00:18:13;51901.28;;;-145.06;69.90
6530;BME280;3298;42.688;23.366;2022-11-06T00:20:40;51895.16;;;-145.06;69.69
6530;BME280;3298;42.688;23.366;2022-11-06T00:23:06;51895.16;;;-145.06;69.56
6530;BME280;3298;42.688;23.366;2022-11-06T00:25:33;51884.91;;;-145.06;70.18
6530;BME280;3298;42.688;23.366;2022-11-06T00:28:00;51903.34;;;-145.06;70.27
6530;BME280;3298;42.688;23.366;2022-11-06T00:30:27;51889.00;;;-145.06;70.31
6530;BME280;3298;42.688;23.366;2022-11-06T00:32:54;51913.56;;;-145.06;69.97
6530;BME280;3298;42.688;23.366;2022-11-06T00:35:22;51895.16;;;-145.06;70.18
6530;BME280;3298;42.688;23.366;2022-11-06T00:37:49;51889.00;;;-145.06;70.37
6530;BME280;3298;42.688;23.366;2022-11-06T00:40:16;51913.56;;;-145.06;70.30
6530;BME280;3298;42.688;23.366;2022-11-06T00:42:42;51915.63;;;-145.06;70.47
6530;BME280;3298;42.688;23.366;2022-11-06T00:45:09;51884.91;;;-145.06;70.51
6530;BME280;3298;42.688;23.366;2022-11-06T00:47:36;51895.16;;;-145.06;70.28
6530;BME280;3298;42.688;23.366;2022-11-06T00:50:04;51905.38;;;-145.06;70.46
6530;BME280;3298;42.688;23.366;2022-11-06T00:52:32;51882.88;;;-145.06;69.70
6530;BME280;3298;42.688;23.366;2022-11-06T00:54:59;51880.81;;;-145.06;69.69
6530;BME280;3298;42.688;23.366;2022-11-06T00:57:25;51905.38;;;-145.06;69.98
6530;BME280;3298;42.688;23.366;2022-11-06T00:59:52;51880.81;;;-145.06;70.04
6530;BME280;3298;42.688;23.366;2022-11-06T01:02:19;51911.53;;;-145.06;70.15
6530;BME280;3298;42.688;23.366;2022-11-06T01:04:46;51886.97;;;-145.06;69.59
6530;BME280;3298;42.688;23.366;2022-11-06T01:07:12;51897.19;;;-145.06;70.11
6530;BME280;3298;42.688;23.366;2022-11-06T01:09:40;51929.94;;;-145.06;70.10
6530;BME280;3298;42.688;23.366;2022-11-06T01:12:07;51901.28;;;-145.06;70.09
6530;BME280;3298;42.688;23.366;2022-11-06T01:14:34;51889.00;;;-145.06;70.27
6530;BME280;3298;42.688;23.366;2022-11-06T01:17:01;51897.19;;;-145.06;70.29
6530;BME280;3298;42.688;23.366;2022-11-06T01:19:28;51899.25;;;-145.06;70.61
6530;BME280;3298;42.688;23.366;2022-11-06T01:21:54;51929.94;;;-145.06;70.84
6530;BME280;3298;42.688;23.366;2022-11-06T01:24:24;51905.38;;;-145.06;70.75
6530;BME280;3298;42.688;23.366;2022-11-06T01:26:52;51895.16;;;-145.06;71.27
6530;BME280;3298;42.688;23.366;2022-11-06T01:29:19;51905.38;;;-145.06;70.92
6530;BME280;3298;42.688;23.366;2022-11-06T01:31:47;51897.19;;;-145.06;71.42
6530;BME280;3298;42.688;23.366;2022-11-06T01:34:15;51921.75;;;-145.06;71.24
6530;BME280;3298;42.688;23.366;2022-11-06T01:36:42;51938.13;;;-145.06;71.45
6530;BME280;3298;42.688;23.366;2022-11-06T01:39:12;51921.75;;;-145.06;71.40
6530;BME280;3298;42.688;23.366;2022-11-06T01:41:43;51915.63;;;-145.06;71.44
6530;BME280;3298;42.688;23.366;2022-11-06T01:45:04;51909.47;;;-145.06;71.53
6530;BME280;3298;42.688;23.366;2022-11-06T01:47:33;51921.75;;;-145.06;70.60
6530;BME280;3298;42.688;23.366;2022-11-06T01:50:03;51901.28;;;-145.06;70.49
6530;BME280;3298;42.688;23.366;2022-11-06T01:52:32;51866.50;;;-145.06;68.47
6530;BME280;3298;42.688;23.366;2022-11-06T01:55:05;51856.28;;;-145.06;67.89
6530;BME280;3298;42.688;23.366;2022-11-06T01:57:33;51864.47;;;-145.06;67.16
6530;BME280;3298;42.688;23.366;2022-11-06T02:00:03;51897.19;;;-145.06;67.56
6530;BME280;3298;42.688;23.366;2022-11-06T02:02:30;51872.66;;;-145.06;68.14
6530;BME280;3298;42.688;23.366;2022-11-06T02:04:57;51872.66;;;-145.06;67.63
6530;BME280;3298;42.688;23.366;2022-11-06T02:07:24;51880.81;;;-145.06;67.95
6530;BME280;3298;42.688;23.366;2022-11-06T02:09:51;51895.16;;;-145.06;68.65
6530;BME280;3298;42.688;23.366;2022-11-06T02:12:32;51889.00;;;-145.06;69.17
6530;BME280;3298;42.688;23.366;2022-11-06T02:15:10;51876.75;;;-145.06;69.04
6530;BME280;3298;42.688;23.366;2022-11-06T02:17:52;51868.56;;;-145.06;69.15
6530;BME280;3298;42.688;23.366;2022-11-06T02:20:27;51897.19;;;-145.06;69.14
6530;BME280;3298;42.688;23.366;2022-11-06T02:23:28;51862.41;;;-145.06;68.31
6530;BME280;3298;42.688;23.366;2022-11-06T02:26:08;51878.78;;;-145.06;67.51
6530;BME280;3298;42.688;23.366;2022-11-06T02:28:46;51889.00;;;-145.06;68.62
6530;BME280;3298;42.688;23.366;2022-11-06T02:31:19;51876.75;;;-145.06;67.86
6530;BME280;3298;42.688;23.366;2022-11-06T02:33:53;51893.09;;;-145.06;68.24
6530;BME280;3298;42.688;23.366;2022-11-06T02:36:25;51880.81;;;-145.06;68.17
6530;BME280;3298;42.688;23.366;2022-11-06T02:38:57;51884.91;;;-145.06;68.76
6530;BME280;3298;42.688;23.366;2022-11-06T02:41:29;51882.88;;;-145.06;68.32
6530;BME280;3298;42.688;23.366;2022-11-06T02:43:59;51903.34;;;-145.06;68.45
6530;BME280;3298;42.688;23.366;2022-11-06T02:46:32;51864.47;;;-145.06;68.94
6530;BME280;3298;42.688;23.366;2022-11-06T02:49:05;51893.09;;;-145.06;68.90
6530;BME280;3298;42.688;23.366;2022-11-06T02:51:37;51905.38;;;-145.06;69.53
6530;BME280;3298;42.688;23.366;2022-11-06T02:54:06;51921.75;;;-145.06;69.41
6530;BME280;3298;42.688;23.366;2022-11-06T02:56:40;51882.88;;;-145.06;69.37
6530;BME280;3298;42.688;23.366;2022-11-06T02:59:14;51889.00;;;-145.06;69.97
6530;BME280;3298;42.688;23.366;2022-11-06T03:01:48;51868.56;;;-145.06;70.37
6530;BME280;3298;42.688;23.366;2022-11-06T03:04:20;51882.88;;;-145.06;70.61
6530;BME280;3298;42.688;23.366;2022-11-06T03:06:51;51917.66;;;-145.06;71.08
6530;BME280;3298;42.688;23.366;2022-11-06T03:09:26;51911.53;;;-145.06;71.23
6530;BME280;3298;42.688;23.366;2022-11-06T03:12:00;51911.53;;;-145.06;71.32
6530;BME280;3298;42.688;23.366;2022-11-06T03:14:32;51909.47;;;-145.06;71.43
6530;BME280;3298;42.688;23.366;2022-11-06T03:17:08;51962.69;;;-145.06;71.77
6530;BME280;3298;42.688;23.366;2022-11-06T03:19:44;51925.84;;;-145.06;71.80
6530;BME280;3298;42.688;23.366;2022-11-06T03:22:17;51897.19;;;-145.06;72.12
6530;BME280;3298;42.688;23.366;2022-11-06T03:24:50;51919.72;;;-145.06;72.01
6530;BME280;3298;42.688;23.366;2022-11-06T03:27:22;51923.81;;;-145.06;72.96
6530;BME280;3298;42.688;23.366;2022-11-06T03:29:59;51913.56;;;-145.06;73.52
6530;BME280;3298;42.688;23.366;2022-11-06T03:32:31;51950.41;;;-145.06;73.88
6530;BME280;3298;42.688;23.366;2022-11-06T03:35:03;51940.19;;;-145.06;74.27
6530;BME280;3298;42.688;23.366;2022-11-06T03:37:35;51942.22;;;-145.06;74.51
6530;BME280;3298;42.688;23.366;2022-11-06T03:40:07;51962.69;;;-145.06;74.98
6530;BME280;3298;42.688;23.366;2022-11-06T03:42:37;51946.31;;;-145.06;75.13
6530;BME280;3298;42.688;23.366;2022-11-06T03:45:10;51989.31;;;-145.06;75.05
6530;BME280;3298;42.688;23.366;2022-11-06T03:47:41;51977.03;;;-145.06;75.25
6530;BME280;3298;42.688;23.366;2022-11-06T03:50:14;51968.84;;;-145.06;75.84
6530;BME280;3298;42.688;23.366;2022-11-06T03:52:48;51991.34;;;-145.06;76.21
6530;BME280;3298;42.688;23.366;2022-11-06T03:55:21;51995.44;;;-145.06;76.63
6530;BME280;3298;42.688;23.366;2022-11-06T03:57:52;52032.28;;;-145.06;77.70
6530;BME280;3298;42.688;23.366;2022-11-06T04:00:22;52040.47;;;-145.06;78.94
6530;BME280;3298;42.688;23.366;2022-11-06T04:02:53;52056.84;;;-145.06;79.44
6530;BME280;3298;42.688;23.366;2022-11-06T04:05:30;52087.56;;;-145.06;80.17
6530;BME280;3298;42.688;23.366;2022-11-06T04:08:00;52142.84;;;-145.06;81.47
6530;BME280;3298;42.688;23.366;2022-11-06T04:10:58;52120.31;;;-145.06;81.58
6530;BME280;3298;42.688;23.366;2022-11-06T04:13:44;52146.94;;;-145.06;82.65
6530;BME280;3298;42.688;23.366;2022-11-06T04:16:30;52230.84;;;-145.06;84.38
6530;BME280;3298;42.688;23.366;2022-11-06T04:18:58;52294.31;;;-145.06;85.98
6530;BME280;3298;42.688;23.366;2022-11-06T04:21:32;52318.88;;;-145.06;86.19
6530;BME280;3298;42.688;23.366;2022-11-06T04:24:10;52449.88;;;-145.06;87.57
6530;BME280;3298;42.688;23.366;2022-11-06T04:27:15;52474.44;;;-145.06;88.28
6530;BME280;3298;42.688;23.366;2022-11-06T04:29:58;52601.38;;;-145.06;90.33
6530;BME280;3298;42.688;23.366;2022-11-06T04:32:35;52666.88;;;-145.06;90.92
6530;BME280;3298;42.688;23.366;2022-11-06T04:35:09;52716.03;;;-145.06;91.10
6530;BME280;3298;42.688;23.366;2022-11-06T04:37:43;52814.28;;;-145.06;92.48
6530;BME280;3298;42.688;23.366;2022-11-06T04:40:17;52892.09;;;-145.06;92.59
6530;BME280;3298;42.688;23.366;2022-11-06T04:42:54;52998.56;;;-145.06;93.92
6530;BME280;3298;42.688;23.366;2022-11-06T04:45:24;53244.28;;;-145.06;95.16
6530;BME280;3298;42.688;23.366;2022-11-06T04:47:53;53170.56;;;-145.06;94.86
6530;BME280;3298;42.688;23.366;2022-11-06T04:50:22;53324.13;;;-145.06;95.86
6530;BME280;3298;42.688;23.366;2022-11-06T04:52:51;53545.28;;;-145.06;97.08
6530;BME280;3298;42.688;23.366;2022-11-06T04:55:19;53653.81;;;-145.06;97.58
6530;BME280;3298;42.688;23.366;2022-11-06T04:57:46;53797.19;;;-145.06;98.29
6530;BME280;3298;42.688;23.366;2022-11-06T05:00:14;53958.97;;;-145.06;98.84
6530;BME280;3298;42.688;23.366;2022-11-06T05:02:42;54079.81;;;-145.06;99.20
6530;BME280;3298;42.688;23.366;2022-11-06T05:05:10;54180.16;;;-145.06;99.54
6530;BME280;3298;42.688;23.366;2022-11-06T05:07:37;54120.75;;;-145.06;99.30
6530;BME280;3298;42.688;23.366;2022-11-06T05:10:04;54219.06;;;-145.06;99.31
6530;BME280;3298;42.688;23.366;2022-11-06T05:12:31;54303.06;;;-145.06;99.41
6530;BME280;3298;42.688;23.366;2022-11-06T05:14:58;54284.63;;;-145.06;99.33
6530;BME280;3298;42.688;23.366;2022-11-06T05:17:25;54212.94;;;-145.06;98.80
6530;BME280;3298;42.688;23.366;2022-11-06T05:19:51;54141.25;;;-145.06;98.37
6530;BME280;3298;42.688;23.366;2022-11-06T05:22:19;54145.34;;;-145.06;98.15
6530;BME280;3298;42.688;23.366;2022-11-06T05:25:04;54030.66;;;-145.06;97.45
6530;BME280;3298;42.688;23.366;2022-11-06T05:27:31;53928.25;;;-145.06;96.78
6530;BME280;3298;42.688;23.366;2022-11-06T05:29:57;53891.38;;;-145.06;96.74
6530;BME280;3298;42.688;23.366;2022-11-06T05:32:24;53946.69;;;-145.06;96.79
6530;BME280;3298;42.688;23.366;2022-11-06T05:34:51;53813.56;;;-145.06;96.12
6530;BME280;3298;42.688;23.366;2022-11-06T05:37:19;53807.41;;;-145.06;96.13
6530;BME280;3298;42.688;23.366;2022-11-06T05:39:46;53760.31;;;-145.06;95.55
6530;BME280;3298;42.688;23.366;2022-11-06T05:42:13;53903.66;;;-145.06;96.74
6530;BME280;3298;42.688;23.366;2022-11-06T05:44:40;53846.31;;;-145.06;96.24
6530;BME280;3298;42.688;23.366;2022-11-06T05:47:06;53938.47;;;-145.06;96.70
6530;BME280;3298;42.688;23.366;2022-11-06T05:49:33;53809.47;;;-145.06;96.05
6530;BME280;3298;42.688;23.366;2022-11-06T05:52:00;53727.53;;;-145.06;95.51
6530;BME280;3298;42.688;23.366;2022-11-06T05:54:28;53649.72;;;-145.06;94.72
6530;BME280;3298;42.688;23.366;2022-11-06T05:56:55;53535.03;;;-145.06;93.97
6530;BME280;3298;42.688;23.366;2022-11-06T05:59:22;53428.56;;;-145.06;93.44
6530;BME280;3298;42.688;23.366;2022-11-06T06:01:48;53358.94;;;-145.06;92.96
6530;BME280;3298;42.688;23.366;2022-11-06T06:04:15;53334.38;;;-145.06;92.62
6530;BME280;3298;42.688;23.366;2022-11-06T06:06:43;53408.09;;;-145.06;93.11
6530;BME280;3298;42.688;23.366;2022-11-06T06:09:10;53451.09;;;-145.06;93.40
6530;BME280;3298;42.688;23.366;2022-11-06T06:11:38;53834.03;;;-145.06;96.04
6530;BME280;3298;42.688;23.366;2022-11-06T06:14:05;53850.41;;;-145.06;96.09
6530;BME280;3298;42.688;23.366;2022-11-06T06:16:32;54313.28;;;-145.06;98.14
6530;BME280;3298;42.688;23.366;2022-11-06T06:18:59;54374.75;;;-145.06;98.29
6530;BME280;3298;42.688;23.366;2022-11-06T06:21:25;54251.84;;;-145.06;97.63
6530;BME280;3298;42.688;23.366;2022-11-06T06:23:52;54333.78;;;-145.06;97.81
6530;BME280;3298;42.688;23.366;2022-11-06T06:26:19;54538.63;;;-145.06;98.82
6530;BME280;3298;42.688;23.366;2022-11-06T06:28:48;54850.00;;;-145.06;99.72
6530;BME280;3298;42.688;23.366;2022-11-06T06:31:15;54956.50;;;-145.06;100.00
6530;BME280;3298;42.688;23.366;2022-11-06T06:33:41;55095.81;;;-145.06;100.00
6530;BME280;3298;42.688;23.366;2022-11-06T06:36:09;54895.06;;;-145.06;99.71
6530;BME280;3298;42.688;23.366;2022-11-06T06:38:35;54886.88;;;-145.06;99.53
6530;BME280;3298;42.688;23.366;2022-11-06T06:41:04;55286.38;;;-145.06;100.00
6530;BME280;3298;42.688;23.366;2022-11-06T06:43:31;54995.44;;;-145.06;99.76
6530;BME280;3298;42.688;23.366;2022-11-06T06:46:01;54587.78;;;-145.06;98.13
6530;BME280;3298;42.688;23.366;2022-11-06T06:48:28;54268.25;;;-145.06;96.96
6530;BME280;3298;42.688;23.366;2022-11-06T06:50:55;54108.47;;;-145.06;95.96
6530;BME280;3298;42.688;23.366;2022-11-06T06:53:22;53766.47;;;-145.06;94.13
6530;BME280;3298;42.688;23.366;2022-11-06T06:55:49;53508.44;;;-145.06;92.61
6530;BME280;3298;42.688;23.366;2022-11-06T06:58:16;53383.50;;;-145.06;91.83
6530;BME280;3298;42.688;23.366;2022-11-06T07:00:43;53270.88;;;-145.06;90.93
6530;BME280;3298;42.688;23.366;2022-11-06T07:03:11;53234.03;;;-145.06;90.93
6530;BME280;3298;42.688;23.366;2022-11-06T07:05:38;53188.97;;;-145.06;90.22
6530;BME280;3298;42.688;23.366;2022-11-06T07:08:05;53096.84;;;-145.06;89.61
6530;BME280;3298;42.688;23.366;2022-11-06T07:10:32;53256.56;;;-145.06;91.05
6530;BME280;3298;42.688;23.366;2022-11-06T07:13:00;53244.28;;;-145.06;91.06
6530;BME280;3298;42.688;23.366;2022-11-06T07:15:27;53283.19;;;-145.06;91.18
6530;BME280;3298;42.688;23.366;2022-11-06T07:17:53;53330.28;;;-145.06;91.62
6530;BME280;3298;42.688;23.366;2022-11-06T07:20:21;53289.31;;;-145.06;91.16
6530;BME280;3298;42.688;23.366;2022-11-06T07:22:48;53248.38;;;-145.06;90.83
6530;BME280;3298;42.688;23.366;2022-11-06T07:25:15;53250.41;;;-145.06;90.95
6530;BME280;3298;42.688;23.366;2022-11-06T07:27:42;53270.88;;;-145.06;91.07
6530;BME280;3298;42.688;23.366;2022-11-06T07:30:10;53297.50;;;-145.06;90.84
6530;BME280;3298;42.688;23.366;2022-11-06T07:32:37;53215.59;;;-145.06;90.92
6530;BME280;3298;42.688;23.366;2022-11-06T07:35:05;53401.94;;;-145.06;92.25
6530;BME280;3298;42.688;23.366;2022-11-06T07:37:34;53461.31;;;-145.06;92.28
6530;BME280;3298;42.688;23.366;2022-11-06T07:40:01;53426.50;;;-145.06;92.35
6530;BME280;3298;42.688;23.366;2022-11-06T07:42:27;53516.63;;;-145.06;92.59
6530;BME280;3298;42.688;23.366;2022-11-06T07:44:54;53502.28;;;-145.06;92.25
6530;BME280;3298;42.688;23.366;2022-11-06T07:47:21;53653.81;;;-145.06;93.23
6530;BME280;3298;42.688;23.366;2022-11-06T07:49:48;53602.63;;;-145.06;92.76
6530;BME280;3298;42.688;23.366;2022-11-06T07:52:15;53530.94;;;-145.06;92.20
6530;BME280;3298;42.688;23.366;2022-11-06T07:54:43;53547.34;;;-145.06;92.51
6530;BME280;3298;42.688;23.366;2022-11-06T07:57:10;53363.03;;;-145.06;91.42
6530;BME280;3298;42.688;23.366;2022-11-06T07:59:37;53397.84;;;-145.06;91.87
6530;BME280;3298;42.688;23.366;2022-11-06T08:02:04;53277.03;;;-145.06;90.97
6530;BME280;3298;42.688;23.366;2022-11-06T08:04:31;53277.03;;;-145.06;90.82
6530;BME280;3298;42.688;23.366;2022-11-06T08:06:57;53322.09;;;-145.06;91.33
6530;BME280;3298;42.688;23.366;2022-11-06T08:09:24;53449.03;;;-145.06;91.39
6530;BME280;3298;42.688;23.366;2022-11-06T08:11:52;53473.63;;;-145.06;92.20
6530;BME280;3298;42.688;23.366;2022-11-06T08:14:19;53653.81;;;-145.06;92.77
6530;BME280;3298;42.688;23.366;2022-11-06T08:16:46;53965.13;;;-145.06;95.36
6530;BME280;3298;42.688;23.366;2022-11-06T08:19:13;53690.69;;;-145.06;93.32
6530;BME280;3298;42.688;23.366;2022-11-06T08:21:40;53305.69;;;-145.06;90.84
6530;BME280;3298;42.688;23.366;2022-11-06T08:24:07;53309.78;;;-145.06;91.08
6530;BME280;3298;42.688;23.366;2022-11-06T08:26:33;53342.56;;;-145.06;91.41
6530;BME280;3298;42.688;23.366;2022-11-06T08:29:01;54012.22;;;-145.06;95.69
6530;BME280;3298;42.688;23.366;2022-11-06T08:31:28;54622.59;;;-145.06;98.58
6530;BME280;3298;42.688;23.366;2022-11-06T08:33:55;56751.63;;;-145.06;100.00
6530;BME280;3298;42.688;23.366;2022-11-06T08:36:22;59480.91;;;-145.06;100.00
6530;BME280;3298;42.688;23.366;2022-11-06T08:38:49;62653.84;;;-145.06;100.00
6530;BME280;3298;42.688;23.366;2022-11-06T08:41:16;67174.13;;;-145.06;100.00
6530;BME280;3298;42.688;23.366;2022-11-06T08:43:42;69706.03;;;-145.06;100.00
6530;BME280;3298;42.688;23.366;2022-11-06T08:46:10;71080.75;;;-145.06;100.00
6530;BME280;3298;42.688;23.366;2022-11-06T08:48:38;72925.56;;;-145.06;100.00
6530;BME280;3298;42.688;23.366;2022-11-06T08:51:05;76882.06;;;-145.06;100.00
6530;BME280;3298;42.688;23.366;2022-11-06T08:53:32;77409.94;;;-145.06;100.00
6530;BME280;3298;42.688;23.366;2022-11-06T08:56:01;72661.97;;;-145.06;100.00
6530;BME280;3298;42.688;23.366;2022-11-06T08:58:28;76090.41;;;-145.06;100.00
6530;BME280;3298;42.688;23.366;2022-11-06T09:00:55;72661.97;;;-145.06;100.00
6530;BME280;3298;42.688;23.366;2022-11-06T09:03:23;75035.13;;;-145.06;100.00
6530;BME280;3298;42.688;23.366;2022-11-06T09:05:50;74507.63;;;-145.06;100.00
6530;BME280;3298;42.688;23.366;2022-11-06T09:08:17;73452.84;;;-145.06;100.00
6530;BME280;3298;42.688;23.366;2022-11-06T09:10:44;70356.28;;;-145.06;100.00
6530;BME280;3298;42.688;23.366;2022-11-06T09:13:11;70807.00;;;-145.06;100.00
6530;BME280;3298;42.688;23.366;2022-11-06T09:15:38;72661.97;;;-145.06;100.00
6530;BME280;3298;42.688;23.366;2022-11-06T09:18:05;75298.91;;;-145.06;100.00
6530;BME280;3298;42.688;23.366;2022-11-06T09:20:33;69652.53;;;-145.06;100.00
6530;BME280;3298;42.688;23.366;2022-11-06T09:23:00;77409.94;;;-145.06;100.00
6530;BME280;3298;42.688;23.366;2022-11-06T09:25:27;72134.81;;;-145.06;100.00
6530;BME280;3298;42.688;23.366;2022-11-06T09:27:55;72134.81;;;-145.06;100.00
6530;BME280;3298;42.688;23.366;2022-11-06T09:30:23;70662.94;;;-145.06;100.00
6530;BME280;3298;42.688;23.366;2022-11-06T09:32:52;71080.75;;;-145.06;100.00
6530;BME280;3298;42.688;23.366;2022-11-06T09:35:19;72134.81;;;-145.06;100.00
6530;BME280;3298;42.688;23.366;2022-11-06T09:37:48;65860.56;;;-145.06;100.00
6530;BME280;3298;42.688;23.366;2022-11-06T09:40:19;64331.81;;;-145.06;100.00
6530;BME280;3298;42.688;23.366;2022-11-06T09:42:58;65749.59;;;-145.06;100.00
6530;BME280;3298;42.688;23.366;2022-11-06T09:45:28;65357.06;;;-145.06;100.00
6530;BME280;3298;42.688;23.366;2022-11-06T09:48:02;67367.41;;;-145.06;100.00
6530;BME280;3298;42.688;23.366;2022-11-06T09:50:34;64863.94;;;-145.06;100.00
6530;BME280;3298;42.688;23.366;2022-11-06T09:53:05;66894.50;;;-145.06;100.00
6530;BME280;3298;42.688;23.366;2022-11-06T09:55:38;64691.34;;;-145.06;100.00
6530;BME280;3298;42.688;23.366;2022-11-06T09:58:12;69129.97;;;-145.06;100.00
6530;BME280;3298;42.688;23.366;2022-11-06T10:00:40;69107.34;;;-145.06;100.00
6530;BME280;3298;42.688;23.366;2022-11-06T10:03:13;66931.50;;;-145.06;100.00
6530;BME280;3298;42.688;23.366;2022-11-06T10:05:44;66415.53;;;-145.06;100.00
6530;BME280;3298;42.688;23.366;2022-11-06T10:08:16;65521.47;;;-145.06;100.00
6530;BME280;3298;42.688;23.366;2022-11-06T10:10:51;62846.88;;;-145.06;100.00
6530;BME280;3298;42.688;23.366;2022-11-06T10:13:36;64301.00;;;-145.06;100.00
6530;BME280;3298;42.688;23.366;2022-11-06T10:16:08;64925.56;;;-145.06;100.00
6530;BME280;3298;42.688;23.366;2022-11-06T10:18:51;66501.88;;;-145.06;100.00
6530;BME280;3298;42.688;23.366;2022-11-06T10:21:22;66444.31;;;-145.06;100.00
6530;BME280;3298;42.688;23.366;2022-11-06T10:23:53;63501.97;;;-145.06;100.00
6530;BME280;3298;42.688;23.366;2022-11-06T10:26:29;62193.94;;;-145.06;100.00
6530;BME280;3298;42.688;23.366;2022-11-06T10:29:10;61165.53;;;-145.06;100.00
6530;BME280;3298;42.688;23.366;2022-11-06T10:31:45;63397.22;;;-145.06;100.00
6530;BME280;3298;42.688;23.366;2022-11-06T10:34:18;64114.06;;;-145.06;100.00
6530;BME280;3298;42.688;23.366;2022-11-06T10:36:50;62540.91;;;-145.06;100.00
6530;BME280;3298;42.688;23.366;2022-11-06T10:39:23;60356.97;;;-145.06;100.00
6530;BME280;3298;42.688;23.366;2022-11-06T10:41:56;62577.88;;;-145.06;100.00
6530;BME280;3298;42.688;23.366;2022-11-06T10:44:29;65237.88;;;-145.06;100.00
6530;BME280;3298;42.688;23.366;2022-11-06T10:47:02;73980.19;;;-145.06;100.00
6530;BME280;3298;42.688;23.366;2022-11-06T10:49:35;82164.50;;;-145.06;100.00
6530;BME280;3298;42.688;23.366;2022-11-06T10:55:27;93284.06;;;-145.06;100.00
6530;BME280;3298;42.688;23.366;2022-11-06T10:58:02;93814.47;;;-145.06;100.00
6530;BME280;3298;42.688;23.366;2022-11-06T11:00:30;97264.00;;;-145.06;100.00
6530;BME280;3298;42.688;23.366;2022-11-06T11:02:59;94344.94;;;-145.06;100.00
6530;BME280;3298;42.688;23.366;2022-11-06T11:05:36;95140.81;;;-145.06;100.00
6530;BME280;3298;42.688;23.366;2022-11-06T11:08:03;95406.13;;;-145.06;100.00
6530;BME280;3298;42.688;23.366;2022-11-06T11:10:32;94875.50;;;-145.06;100.00
6530;BME280;3298;42.688;23.366;2022-11-06T11:13:01;96733.09;;;-145.06;100.00
6530;BME280;3298;42.688;23.366;2022-11-06T11:15:30;96733.09;;;-145.06;100.00
6530;BME280;3298;42.688;23.366;2022-11-06T11:18:14;95671.47;;;-145.06;100.00
6530;BME280;3298;42.688;23.366;2022-11-06T11:20:43;96202.25;;;-145.06;100.00
6530;BME280;3298;42.688;23.366;2022-11-06T11:23:14;95671.47;;;-145.06;100.00
6530;BME280;3298;42.688;23.366;2022-11-06T11:25:44;95406.13;;;-145.06;100.00
6530;BME280;3298;42.688;23.366;2022-11-06T11:28:20;91693.38;;;-145.06;100.00
6530;BME280;3298;42.688;23.366;2022-11-06T11:30:51;91958.44;;;-145.06;100.00
6530;BME280;3298;42.688;23.366;2022-11-06T11:33:19;88249.34;;;-145.06;100.00
6530;BME280;3298;42.688;23.366;2022-11-06T11:35:48;86131.69;;;-145.06;100.00
6530;BME280;3298;42.688;23.366;2022-11-06T11:38:17;86131.69;;;-145.06;100.00
6530;BME280;3298;42.688;23.366;2022-11-06T11:40:48;83486.41;;;-145.06;100.00
6530;BME280;3298;42.688;23.366;2022-11-06T11:43:24;81635.91;;;-145.06;100.00
6530;BME280;3298;42.688;23.366;2022-11-06T11:46:13;77937.91;;;-145.06;100.00
6530;BME280;3298;42.688;23.366;2022-11-06T11:48:44;76354.28;;;-145.06;100.00
6530;BME280;3298;42.688;23.366;2022-11-06T11:51:24;74243.88;;;-145.06;100.00
6530;BME280;3298;42.688;23.366;2022-11-06T11:53:54;70662.94;;;-145.06;100.00
6530;BME280;3298;42.688;23.366;2022-11-06T11:56:24;67311.88;;;-145.06;100.00
6530;BME280;3298;42.688;23.366;2022-11-06T11:58:54;65036.53;;;-145.06;100.00
6530;BME280;3298;42.688;23.366;2022-11-06T12:01:32;63799.78;;;-145.06;100.00
6530;BME280;3298;42.688;23.366;2022-11-06T12:04:08;62017.38;;;-145.06;100.00
6530;BME280;3298;42.688;23.366;2022-11-06T12:06:49;59310.66;;;-145.06;100.00
6530;BME280;3298;42.688;23.366;2022-11-06T12:09:16;60570.38;;;-145.06;100.00
6530;BME280;3298;42.688;23.366;2022-11-06T12:11:45;59932.25;;;-145.06;100.00
6530;BME280;3298;42.688;23.366;2022-11-06T12:14:16;58461.53;;;-145.06;99.25
6530;BME280;3298;42.688;23.366;2022-11-06T12:16:45;58356.94;;;-145.06;99.53
6530;BME280;3298;42.688;23.366;2022-11-06T12:19:15;56888.94;;;-145.06;97.22
6530;BME280;3298;42.688;23.366;2022-11-06T12:21:45;56460.56;;;-145.06;96.27
6530;BME280;3298;42.688;23.366;2022-11-06T12:24:19;56622.47;;;-145.06;96.65
6530;BME280;3298;42.688;23.366;2022-11-06T12:26:52;56788.50;;;-145.06;97.27
6530;BME280;3298;42.688;23.366;2022-11-06T12:29:24;56977.09;;;-145.06;97.56
6530;BME280;3298;42.688;23.366;2022-11-06T12:31:58;56595.84;;;-145.06;96.89
6530;BME280;3298;42.688;23.366;2022-11-06T12:34:32;56866.41;;;-145.06;97.29
6530;BME280;3298;42.688;23.366;2022-11-06T12:37:12;56749.56;;;-145.06;97.25
6530;BME280;3298;42.688;23.366;2022-11-06T12:39:49;56485.16;;;-145.06;96.44
6530;BME280;3298;42.688;23.366;2022-11-06T12:42:20;56409.31;;;-145.06;96.33
6530;BME280;3298;42.688;23.366;2022-11-06T12:44:50;55874.44;;;-145.06;95.05
6530;BME280;3298;42.688;23.366;2022-11-06T12:47:26;55739.19;;;-145.06;94.64
6530;BME280;3298;42.688;23.366;2022-11-06T12:50:19;55595.75;;;-145.06;94.57
6530;BME280;3298;42.688;23.366;2022-11-06T12:53:15;55774.03;;;-145.06;94.76
6530;BME280;3298;42.688;23.366;2022-11-06T12:55:50;55659.28;;;-145.06;94.37
6530;BME280;3298;42.688;23.366;2022-11-06T12:58:44;55378.56;;;-145.06;93.89
6530;BME280;3298;42.688;23.366;2022-11-06T13:01:19;55460.53;;;-145.06;94.45
6530;BME280;3298;42.688;23.366;2022-11-06T13:04:06;54782.38;;;-145.06;92.46
6530;BME280;3298;42.688;23.366;2022-11-06T13:06:58;55104.03;;;-145.06;93.45
6530;BME280;3298;42.688;23.366;2022-11-06T13:09:33;55370.38;;;-145.06;93.88